Time;durP1;ratioP1;P1;durP2;ratioP2;P2;SDS_P1;SDS_P2;PMS_P1;PMS_P2;Temp;Humidity;BMP_temperature;BMP_pressure;BME280_temperature;BME280_humidity;BME280_pressure;Samples;Min_cycle;Max_cycle;Signal;HPM_P1;HPM_P2
2023/09/04 00:00:58;;;;;;;0.60;0.60;;;14.00;99.90;;;;;;5000974;28;20079;-89
2023/09/04 00:03:27;;;;;;;0.60;0.60;;;14.10;99.90;;;;;;5002795;28;20057;-88
2023/09/04 00:05:52;;;;;;;0.60;0.60;;;14.00;99.90;;;;;;4986329;28;20049;-88
2023/09/04 00:08:18;;;;;;;0.60;0.60;;;14.00;99.90;;;;;;5002317;28;20049;-89
2023/09/04 00:10:44;;;;;;;0.70;0.70;;;13.90;99.90;;;;;;4999479;28;20052;-89
2023/09/04 00:13:11;;;;;;;0.60;0.60;;;13.70;99.90;;;;;;5006579;28;20046;-89
2023/09/04 00:15:38;;;;;;;0.60;0.60;;;13.70;99.90;;;;;;4988138;28;20049;-88
2023/09/04 00:18:04;;;;;;;0.60;0.60;;;13.70;99.90;;;;;;4986027;28;20494;-88
2023/09/04 00:20:30;;;;;;;0.60;0.60;;;13.80;99.90;;;;;;4983918;28;20084;-88
2023/09/04 00:22:55;;;;;;;0.70;0.70;;;13.70;99.90;;;;;;5000680;28;20069;-88
2023/09/04 00:25:22;;;;;;;0.70;0.70;;;13.80;99.90;;;;;;4988820;28;20045;-87
2023/09/04 00:27:48;;;;;;;0.70;0.70;;;13.60;99.90;;;;;;4999180;28;20705;-87
2023/09/04 00:30:14;;;;;;;0.60;0.60;;;13.80;99.90;;;;;;4999109;28;20065;-88
2023/09/04 00:32:39;;;;;;;0.70;0.70;;;13.60;99.90;;;;;;5004049;28;20045;-88
2023/09/04 00:35:06;;;;;;;0.70;0.70;;;13.70;99.90;;;;;;5000566;28;20738;-88
2023/09/04 00:37:31;;;;;;;0.70;0.70;;;13.50;99.90;;;;;;4985382;28;20046;-88
2023/09/04 00:39:57;;;;;;;0.70;0.70;;;13.70;99.90;;;;;;5000161;28;20056;-87
2023/09/04 00:42:23;;;;;;;0.70;0.70;;;13.50;99.90;;;;;;4996442;28;20037;-87
2023/09/04 00:44:50;;;;;;;0.60;0.60;;;13.40;99.90;;;;;;5001035;28;20046;-87
2023/09/04 00:47:23;;;;;;;0.65;0.65;;;13.50;99.90;;;;;;4983612;28;20057;-88
2023/09/04 00:49:50;;;;;;;0.60;0.60;;;13.50;99.90;;;;;;5005591;28;20045;-88
2023/09/04 00:52:16;;;;;;;0.60;0.60;;;13.30;99.90;;;;;;4984896;28;20506;-88
2023/09/04 00:54:42;;;;;;;0.60;0.60;;;13.60;99.90;;;;;;5002656;28;20046;-87
2023/09/04 00:57:10;;;;;;;0.60;0.60;;;13.40;99.90;;;;;;5008737;28;20084;-88
2023/09/04 00:59:36;;;;;;;0.50;0.50;;;13.40;99.90;;;;;;5004249;28;20100;-87
2023/09/04 01:02:04;;;;;;;0.60;0.60;;;13.50;99.90;;;;;;5002891;28;20041;-88
2023/09/04 01:04:30;;;;;;;0.50;0.50;;;13.50;99.90;;;;;;4986006;28;20041;-87
2023/09/04 01:06:57;;;;;;;0.60;0.60;;;13.50;99.90;;;;;;5003961;28;20045;-87
2023/09/04 01:09:23;;;;;;;0.60;0.60;;;13.30;99.90;;;;;;5005897;28;20449;-87
2023/09/04 01:12:07;;;;;;;0.60;0.60;;;13.50;99.90;;;;;;4986217;28;20045;-87
2023/09/04 01:14:44;;;;;;;0.60;0.60;;;13.30;99.90;;;;;;4990177;28;20060;-88
2023/09/04 01:17:11;;;;;;;0.60;0.60;;;13.40;99.90;;;;;;5002000;28;20052;-87
2023/09/04 01:19:39;;;;;;;0.60;0.60;;;13.40;99.90;;;;;;4986230;28;20064;-87
2023/09/04 01:22:08;;;;;;;0.70;0.70;;;13.20;99.90;;;;;;5004574;28;20114;-87
2023/09/04 01:24:35;;;;;;;0.60;0.60;;;13.20;99.90;;;;;;4983514;28;20041;-87
2023/09/04 01:27:39;;;;;;;0.60;0.60;;;13.20;99.90;;;;;;4986986;28;20050;-86
2023/09/04 01:30:24;;;;;;;0.55;0.55;;;13.00;99.90;;;;;;4958483;28;20049;-86
2023/09/04 01:32:58;;;;;;;0.60;0.60;;;13.00;99.90;;;;;;4989596;28;20127;-86
2023/09/04 01:35:25;;;;;;;0.60;0.60;;;12.90;99.90;;;;;;5001542;28;20077;-87
2023/09/04 01:37:51;;;;;;;0.60;0.60;;;13.00;99.90;;;;;;5003998;28;20761;-87
2023/09/04 01:40:18;;;;;;;0.60;0.60;;;13.00;99.90;;;;;;4985876;28;20038;-87
2023/09/04 01:42:43;;;;;;;0.60;0.60;;;12.90;99.90;;;;;;5004904;28;20045;-87
2023/09/04 01:45:09;;;;;;;0.60;0.60;;;12.90;99.90;;;;;;4988323;28;20041;-86
2023/09/04 01:47:35;;;;;;;0.60;0.60;;;12.90;99.90;;;;;;5003124;28;20490;-87
2023/09/04 01:50:01;;;;;;;0.70;0.70;;;13.10;99.90;;;;;;4985514;28;20459;-87
2023/09/04 01:52:26;;;;;;;0.60;0.60;;;12.90;99.90;;;;;;5001969;28;20057;-87
2023/09/04 01:54:52;;;;;;;0.70;0.70;;;12.90;99.90;;;;;;5003457;28;20053;-87
2023/09/04 01:57:18;;;;;;;0.63;0.63;;;13.00;99.90;;;;;;5001284;28;20049;-87
2023/09/04 01:59:43;;;;;;;0.70;0.70;;;12.90;99.90;;;;;;5000283;28;20140;-86
2023/09/04 02:02:09;;;;;;;0.70;0.70;;;12.80;99.90;;;;;;4983783;28;20549;-86
2023/09/04 02:04:34;;;;;;;0.70;0.70;;;12.50;99.90;;;;;;5000858;28;20041;-87
2023/09/04 02:07:00;;;;;;;0.70;0.70;;;12.70;99.90;;;;;;4995628;28;20071;-86
2023/09/04 02:09:26;;;;;;;0.60;0.60;;;12.70;99.90;;;;;;4982929;28;20049;-85
2023/09/04 02:11:52;;;;;;;0.70;0.70;;;12.80;99.90;;;;;;4998383;28;20392;-86
2023/09/04 02:14:18;;;;;;;0.70;0.70;;;12.90;99.90;;;;;;4994557;28;20076;-86
2023/09/04 02:16:43;;;;;;;0.70;0.70;;;13.00;99.90;;;;;;4985213;28;20046;-86
2023/09/04 02:19:09;;;;;;;0.70;0.70;;;13.10;99.90;;;;;;4999774;28;20489;-86
2023/09/04 02:21:35;;;;;;;0.70;0.70;;;13.40;99.90;;;;;;4997089;28;20052;-86
2023/09/04 02:24:01;;;;;;;0.70;0.70;;;12.90;99.90;;;;;;4994232;28;20042;-86
2023/09/04 02:26:27;;;;;;;0.70;0.70;;;12.80;99.90;;;;;;4996588;28;20037;-86
2023/09/04 02:28:53;;;;;;;0.70;0.70;;;12.50;99.90;;;;;;4998173;28;20049;-86
2023/09/04 02:31:18;;;;;;;0.70;0.70;;;12.60;99.90;;;;;;4978577;28;20050;-86
2023/09/04 02:33:44;;;;;;;0.70;0.70;;;12.70;99.90;;;;;;4996583;28;20530;-86
2023/09/04 02:36:10;;;;;;;0.70;0.70;;;12.50;99.90;;;;;;4979995;28;20053;-86
2023/09/04 02:38:36;;;;;;;0.70;0.70;;;12.70;99.90;;;;;;4996222;28;20041;-85
2023/09/04 02:41:01;;;;;;;0.70;0.70;;;12.50;99.90;;;;;;4997400;28;20052;-87
2023/09/04 02:43:27;;;;;;;0.70;0.70;;;12.60;99.90;;;;;;5015516;28;20045;-86
2023/09/04 02:45:53;;;;;;;0.70;0.70;;;12.60;99.90;;;;;;4999094;28;20050;-86
2023/09/04 02:48:18;;;;;;;0.73;0.73;;;12.30;99.90;;;;;;4981042;28;20129;-86
2023/09/04 02:50:47;;;;;;;0.90;0.90;;;12.40;99.90;;;;;;4984129;28;20407;-85
2023/09/04 02:53:13;;;;;;;0.60;0.60;;;12.50;99.90;;;;;;4998017;28;20058;-86
2023/09/04 02:55:39;;;;;;;0.60;0.60;;;12.30;99.90;;;;;;4998391;28;20396;-86
2023/09/04 02:58:04;;;;;;;0.60;0.60;;;12.30;99.90;;;;;;4982995;28;20052;-87
2023/09/04 03:00:30;;;;;;;0.60;0.60;;;12.50;99.90;;;;;;4996179;28;20045;-87
2023/09/04 03:02:56;;;;;;;0.60;0.60;;;12.50;99.90;;;;;;4984867;28;20052;-86
2023/09/04 03:05:21;;;;;;;0.65;0.65;;;12.60;99.90;;;;;;4979996;28;20537;-86
2023/09/04 03:07:47;;;;;;;0.60;0.60;;;12.30;99.90;;;;;;5000824;28;20463;-86
2023/09/04 03:10:13;;;;;;;0.70;0.70;;;12.30;99.90;;;;;;4982385;28;20053;-87
2023/09/04 03:12:38;;;;;;;0.60;0.60;;;12.20;99.90;;;;;;4980163;28;20058;-87
2023/09/04 03:15:06;;;;;;;0.60;0.60;;;12.20;99.90;;;;;;4984418;28;20085;-86
2023/09/04 03:17:33;;;;;;;0.60;0.60;;;12.30;99.90;;;;;;4978964;28;21781;-86
2023/09/04 03:19:59;;;;;;;0.70;0.70;;;12.20;99.90;;;;;;4983632;28;20056;-87
2023/09/04 03:22:26;;;;;;;0.68;0.68;;;12.10;99.90;;;;;;4995178;28;20065;-87
2023/09/04 03:24:52;;;;;;;0.70;0.70;;;12.20;99.90;;;;;;4993948;28;20049;-87
2023/09/04 03:27:19;;;;;;;0.70;0.70;;;12.30;99.90;;;;;;4999676;28;20084;-87
2023/09/04 03:29:45;;;;;;;0.60;0.60;;;12.20;99.90;;;;;;4997922;28;20064;-87
2023/09/04 03:32:10;;;;;;;0.70;0.70;;;12.20;99.90;;;;;;4998376;28;20041;-86
2023/09/04 03:34:37;;;;;;;0.70;0.70;;;12.20;99.90;;;;;;5002128;28;20112;-86
2023/09/04 03:37:03;;;;;;;0.70;0.70;;;12.10;99.90;;;;;;4984038;28;20461;-86
2023/09/04 03:39:36;;;;;;;0.63;0.63;;;12.20;99.90;;;;;;5003511;28;20049;-86
2023/09/04 03:42:03;;;;;;;0.70;0.70;;;12.10;99.90;;;;;;5004528;28;20060;-85
2023/09/04 03:44:29;;;;;;;0.70;0.70;;;12.30;99.90;;;;;;4999671;28;20037;-88
2023/09/04 03:46:55;;;;;;;0.75;0.75;;;12.30;99.90;;;;;;4987691;28;20828;-87
2023/09/04 03:49:21;;;;;;;0.70;0.70;;;12.30;99.90;;;;;;4988095;28;20045;-87
2023/09/04 03:51:46;;;;;;;0.70;0.70;;;12.30;99.90;;;;;;5003339;28;20061;-88
2023/09/04 03:54:12;;;;;;;0.70;0.70;;;12.20;99.90;;;;;;5005984;28;20041;-86
2023/09/04 03:56:38;;;;;;;0.70;0.70;;;12.20;99.90;;;;;;5000744;28;20479;-86
2023/09/04 03:59:29;;;;;;;0.70;0.70;;;12.10;99.90;;;;;;5001521;28;20134;-86
2023/09/04 04:02:27;;;;;;;0.80;0.80;;;12.10;99.90;;;;;;4982099;28;20068;-87
2023/09/04 04:04:53;;;;;;;0.70;0.70;;;12.10;99.90;;;;;;4927601;28;20185;-86
2023/09/04 04:07:19;;;;;;;0.80;0.80;;;12.00;99.90;;;;;;4925382;28;20154;-88
2023/09/04 04:09:47;;;;;;;0.70;0.70;;;12.10;99.90;;;;;;4990706;28;20061;-86
2023/09/04 04:12:14;;;;;;;0.70;0.70;;;12.00;99.90;;;;;;5007799;28;20072;-86
2023/09/04 04:14:40;;;;;;;0.70;0.70;;;11.80;99.90;;;;;;4991403;28;20093;-86
2023/09/04 04:17:08;;;;;;;0.70;0.70;;;11.90;99.90;;;;;;5002948;28;20111;-86
2023/09/04 04:19:34;;;;;;;0.70;0.70;;;11.80;99.90;;;;;;4989676;28;20041;-86
2023/09/04 04:21:59;;;;;;;0.60;0.60;;;11.90;99.90;;;;;;4984831;28;20488;-86
2023/09/04 04:24:27;;;;;;;0.73;0.73;;;12.00;99.90;;;;;;5003959;28;20560;-86
2023/09/04 04:26:53;;;;;;;0.80;0.80;;;11.90;99.90;;;;;;5002019;28;20053;-86
2023/09/04 04:29:18;;;;;;;0.85;0.85;;;11.80;99.90;;;;;;5005206;28;20438;-86
2023/09/04 04:31:45;;;;;;;0.98;0.98;;;12.00;99.90;;;;;;5004912;28;20057;-86
2023/09/04 04:34:11;;;;;;;0.95;0.95;;;11.90;99.90;;;;;;5000653;28;20116;-86
2023/09/04 04:36:37;;;;;;;0.93;0.93;;;11.80;99.90;;;;;;4987194;28;20500;-85
2023/09/04 04:39:03;;;;;;;1.05;1.05;;;11.80;99.90;;;;;;4985444;28;20042;-86
2023/09/04 04:41:31;;;;;;;0.90;0.90;;;12.00;99.90;;;;;;4987089;28;20096;-86
2023/09/04 04:43:56;;;;;;;0.82;0.82;;;12.00;99.90;;;;;;5005231;28;20670;-86
2023/09/04 04:46:22;;;;;;;0.93;0.93;;;11.90;99.90;;;;;;4986350;28;20037;-86
2023/09/04 04:48:49;;;;;;;0.93;0.93;;;12.00;99.90;;;;;;5021345;28;20037;-86
2023/09/04 04:51:15;;;;;;;0.95;0.95;;;12.00;99.90;;;;;;4999563;28;20081;-86
2023/09/04 04:53:40;;;;;;;0.90;0.90;;;12.00;99.90;;;;;;5002462;28;20519;-87
2023/09/04 04:56:06;;;;;;;0.90;0.90;;;12.10;99.90;;;;;;5002450;28;20129;-86
2023/09/04 04:58:32;;;;;;;0.93;0.93;;;12.10;99.90;;;;;;4985153;28;20132;-86
2023/09/04 05:00:57;;;;;;;0.82;0.82;;;12.10;99.90;;;;;;4986472;28;20099;-86
2023/09/04 05:03:23;;;;;;;0.98;0.98;;;11.90;99.90;;;;;;5003763;28;20117;-86
2023/09/04 05:05:51;;;;;;;0.88;0.88;;;12.10;99.90;;;;;;5003768;28;20044;-86
2023/09/04 05:08:17;;;;;;;0.95;0.95;;;12.00;99.90;;;;;;5001184;28;20064;-86
2023/09/04 05:10:45;;;;;;;0.93;0.93;;;12.20;99.90;;;;;;5003464;28;20140;-86
2023/09/04 05:13:11;;;;;;;0.85;0.85;;;12.10;99.90;;;;;;4989331;28;20461;-86
2023/09/04 05:15:37;;;;;;;0.82;0.82;;;12.10;99.90;;;;;;5003548;28;20041;-88
2023/09/04 05:18:03;;;;;;;0.90;0.90;;;12.30;99.90;;;;;;5001472;28;20046;-87
2023/09/04 05:20:29;;;;;;;0.88;0.88;;;12.20;99.90;;;;;;4985347;28;20057;-88
2023/09/04 05:22:55;;;;;;;0.80;0.80;;;12.20;99.90;;;;;;4984925;28;20052;-88
2023/09/04 05:25:20;;;;;;;0.85;0.85;;;12.30;99.90;;;;;;5006018;28;20050;-88
2023/09/04 05:27:46;;;;;;;0.80;0.80;;;13.40;99.90;;;;;;5010508;28;20048;-88
2023/09/04 05:30:12;;;;;;;0.73;0.73;;;14.50;99.90;;;;;;4990275;28;20056;-88
2023/09/04 05:32:41;;;;;;;0.70;0.70;;;15.30;99.90;;;;;;5006542;28;20133;-87
2023/09/04 05:35:07;;;;;;;0.57;0.57;;;16.20;99.90;;;;;;5008594;28;20372;-87
2023/09/04 05:37:33;;;;;;;0.60;0.60;;;16.90;99.90;;;;;;4994086;28;20057;-88
2023/09/04 05:39:58;;;;;;;0.80;0.80;;;17.40;99.90;;;;;;5007805;28;20045;-88
2023/09/04 05:42:24;;;;;;;0.80;0.80;;;18.00;99.90;;;;;;5007656;28;20746;-89
2023/09/04 05:44:50;;;;;;;1.00;1.00;;;17.80;99.90;;;;;;4990978;28;20037;-87
2023/09/04 05:47:15;;;;;;;1.27;1.20;;;18.20;99.90;;;;;;4990701;28;20403;-86
2023/09/04 05:49:49;;;;;;;1.00;1.00;;;18.70;99.90;;;;;;5005786;28;20184;-87
2023/09/04 05:52:14;;;;;;;1.00;1.00;;;17.80;99.90;;;;;;4991744;28;20050;-87
2023/09/04 05:54:40;;;;;;;1.10;1.10;;;16.10;99.90;;;;;;4992559;28;20480;-87
2023/09/04 05:57:08;;;;;;;1.10;1.10;;;15.70;99.90;;;;;;5008222;28;20132;-87
2023/09/04 05:59:34;;;;;;;1.10;1.10;;;15.30;99.90;;;;;;4991894;28;20076;-86
2023/09/04 06:02:00;;;;;;;1.10;1.10;;;15.20;99.90;;;;;;4988660;28;20706;-87
2023/09/04 06:04:26;;;;;;;1.10;1.10;;;15.20;99.90;;;;;;4992568;28;20080;-86
2023/09/04 06:06:52;;;;;;;1.10;1.10;;;15.30;99.90;;;;;;5007105;28;20460;-86
2023/09/04 06:09:18;;;;;;;1.67;1.58;;;15.40;99.90;;;;;;5006590;28;20120;-85
2023/09/04 06:11:44;;;;;;;1.00;1.00;;;15.40;99.90;;;;;;4988652;28;20053;-87
2023/09/04 06:14:10;;;;;;;1.10;1.10;;;15.70;99.90;;;;;;4989700;28;20131;-87
2023/09/04 06:16:36;;;;;;;0.95;0.95;;;15.60;99.90;;;;;;5008472;28;20129;-87
2023/09/04 06:19:02;;;;;;;1.10;1.10;;;15.60;99.90;;;;;;5010626;28;20057;-87
2023/09/04 06:21:28;;;;;;;1.10;1.10;;;15.60;99.90;;;;;;4994519;28;20048;-86
2023/09/04 06:23:54;;;;;;;1.10;1.10;;;15.80;99.90;;;;;;5027029;28;20041;-87
2023/09/04 06:26:19;;;;;;;1.10;1.10;;;15.70;99.90;;;;;;4989668;28;20533;-85
2023/09/04 06:28:45;;;;;;;1.15;1.15;;;16.00;99.90;;;;;;5008985;28;20874;-88
2023/09/04 06:31:11;;;;;;;1.08;1.08;;;16.20;99.90;;;;;;5006304;28;20164;-87
2023/09/04 06:33:37;;;;;;;1.10;1.10;;;16.10;99.90;;;;;;5008955;28;20042;-88
2023/09/04 06:36:04;;;;;;;1.00;1.00;;;16.20;99.90;;;;;;5008892;28;20372;-87
2023/09/04 06:38:30;;;;;;;1.10;1.10;;;16.60;99.90;;;;;;5006803;28;20057;-87
2023/09/04 06:40:58;;;;;;;0.93;0.93;;;16.60;99.90;;;;;;4990104;28;20038;-87
2023/09/04 06:43:25;;;;;;;1.02;1.02;;;16.50;99.90;;;;;;5005122;28;20479;-88
2023/09/04 06:45:51;;;;;;;0.90;0.90;;;16.90;99.90;;;;;;5003679;28;20049;-84
2023/09/04 06:48:16;;;;;;;0.80;0.80;;;16.80;99.90;;;;;;5008033;28;20045;-89
2023/09/04 06:50:42;;;;;;;0.90;0.90;;;16.70;99.90;;;;;;5006707;28;20156;-89
2023/09/04 06:53:08;;;;;;;0.90;0.90;;;16.80;99.90;;;;;;4991665;28;20395;-88
2023/09/04 06:55:34;;;;;;;0.80;0.80;;;16.80;99.90;;;;;;5010100;28;20068;-89
2023/09/04 06:58:03;;;;;;;0.80;0.80;;;16.80;99.90;;;;;;5008907;28;20060;-86
2023/09/04 07:00:29;;;;;;;0.80;0.80;;;16.90;99.90;;;;;;5006811;28;20578;-88
2023/09/04 07:02:55;;;;;;;0.80;0.80;;;16.90;99.90;;;;;;5010049;28;20064;-88
2023/09/04 07:05:21;;;;;;;0.73;0.73;;;17.20;99.90;;;;;;5006260;28;20049;-88
2023/09/04 07:07:47;;;;;;;0.63;0.63;;;17.20;99.90;;;;;;4988928;28;20065;-90
2023/09/04 07:10:13;;;;;;;0.60;0.60;;;17.60;99.90;;;;;;4994538;28;20037;-89
2023/09/04 07:12:40;;;;;;;0.55;0.55;;;17.70;99.90;;;;;;4991758;28;20053;-89
2023/09/04 07:15:07;;;;;;;0.50;0.50;;;17.80;99.90;;;;;;5012842;28;20053;-89
2023/09/04 07:17:32;;;;;;;0.60;0.60;;;17.90;99.90;;;;;;5014436;28;20042;-89
2023/09/04 07:19:58;;;;;;;0.60;0.60;;;18.00;99.90;;;;;;4998285;28;20682;-88
2023/09/04 07:22:26;;;;;;;0.70;0.70;;;18.10;99.90;;;;;;4994552;28;20049;-87
2023/09/04 07:24:52;;;;;;;0.73;0.73;;;18.30;99.90;;;;;;5009646;28;20552;-89
2023/09/04 07:27:18;;;;;;;0.60;0.60;;;18.50;99.90;;;;;;4995102;28;20069;-90
2023/09/04 07:29:44;;;;;;;0.80;0.80;;;18.70;99.90;;;;;;4995051;28;20084;-87
2023/09/04 07:32:10;;;;;;;0.80;0.80;;;18.90;99.90;;;;;;5013035;28;20056;-89
2023/09/04 07:34:36;;;;;;;0.70;0.70;;;18.70;99.90;;;;;;5012802;28;20045;-89
2023/09/04 07:37:02;;;;;;;0.70;0.70;;;18.60;99.90;;;;;;4995660;28;20080;-88
2023/09/04 07:39:30;;;;;;;0.80;0.80;;;18.90;99.90;;;;;;4995058;28;20776;-89
2023/09/04 07:41:56;;;;;;;0.90;0.90;;;19.10;99.90;;;;;;4992386;28;20052;-89
2023/09/04 07:44:22;;;;;;;0.85;0.85;;;19.20;99.90;;;;;;4993576;28;20478;-90
2023/09/04 07:46:47;;;;;;;0.80;0.80;;;19.60;99.90;;;;;;5012737;28;20534;-90
2023/09/04 07:49:13;;;;;;;0.60;0.60;;;19.50;99.90;;;;;;4995142;28;20120;-91
2023/09/04 07:51:39;;;;;;;0.60;0.60;;;19.50;99.90;;;;;;4998559;28;20124;-89
2023/09/04 07:54:05;;;;;;;0.60;0.60;;;19.80;99.90;;;;;;5013892;28;20037;-92
2023/09/04 07:56:33;;;;;;;0.60;0.60;;;19.90;99.90;;;;;;5012813;28;20053;-92
2023/09/04 07:58:59;;;;;;;0.60;0.60;;;20.10;99.90;;;;;;4995811;28;20112;-89
2023/09/04 08:01:25;;;;;;;0.70;0.70;;;19.90;99.90;;;;;;4995686;28;20141;-91
2023/09/04 08:03:50;;;;;;;0.70;0.70;;;20.10;99.90;;;;;;4991895;28;20040;-90
2023/09/04 08:06:16;;;;;;;0.73;0.73;;;20.30;99.90;;;;;;4994931;28;20045;-90
2023/09/04 08:08:42;;;;;;;0.70;0.70;;;20.60;99.90;;;;;;5007317;28;20047;-90
2023/09/04 08:11:13;;;;;;;0.70;0.70;;;20.70;99.90;;;;;;4995129;28;20053;-95
2023/09/04 08:13:39;;;;;;;0.70;0.70;;;20.80;99.90;;;;;;4993830;28;20072;-89
2023/09/04 08:16:05;;;;;;;0.60;0.60;;;21.00;99.90;;;;;;5010936;28;20044;-88
2023/09/04 08:18:30;;;;;;;0.60;0.60;;;21.00;99.90;;;;;;5013262;28;20056;-90
2023/09/04 08:20:59;;;;;;;0.50;0.50;;;21.20;99.90;;;;;;4995620;28;20111;-92
2023/09/04 08:23:24;;;;;;;0.50;0.50;;;21.40;99.90;;;;;;4996262;28;20445;-90
2023/09/04 08:25:58;;;;;;;0.60;0.60;;;21.40;99.90;;;;;;4992096;28;20830;-88
2023/09/04 08:28:24;;;;;;;0.60;0.60;;;21.50;99.90;;;;;;5007274;28;20040;-88
2023/09/04 08:30:49;;;;;;;0.50;0.50;;;21.40;99.90;;;;;;5006401;28;20041;-87
2023/09/04 08:33:15;;;;;;;0.60;0.60;;;21.10;99.90;;;;;;4995050;28;20034;-92
2023/09/04 08:35:40;;;;;;;0.50;0.50;;;20.90;99.90;;;;;;5010650;28;20041;-90
2023/09/04 08:38:09;;;;;;;0.50;0.50;;;21.10;99.90;;;;;;4991500;28;20077;-94
2023/09/04 08:40:41;;;;;;;0.50;0.50;;;21.30;99.90;;;;;;4993900;28;20052;-90
2023/09/04 08:43:10;;;;;;;0.50;0.50;;;21.40;99.90;;;;;;5011274;28;20049;-90
2023/09/04 08:45:39;;;;;;;0.50;0.50;;;21.30;99.90;;;;;;4996781;28;20547;-90
2023/09/04 08:48:06;;;;;;;0.50;0.50;;;21.10;99.90;;;;;;4991965;28;20041;-90
2023/09/04 08:50:32;;;;;;;0.50;0.50;;;21.00;99.90;;;;;;4993376;28;20045;-89
2023/09/04 08:52:58;;;;;;;0.50;0.50;;;21.10;99.90;;;;;;5008775;28;20047;-89
2023/09/04 08:55:30;;;;;;;0.40;0.40;;;21.10;99.90;;;;;;4995624;28;20884;-94
2023/09/04 08:57:58;;;;;;;0.50;0.50;;;21.40;99.90;;;;;;4998610;28;20050;-89
2023/09/04 09:00:24;;;;;;;0.50;0.50;;;21.40;99.90;;;;;;5011103;28;20033;-91
2023/09/04 09:02:51;;;;;;;0.40;0.40;;;21.40;99.90;;;;;;4991980;28;20577;-89
2023/09/04 09:05:17;;;;;;;0.40;0.40;;;21.80;99.90;;;;;;4992363;28;20064;-91
2023/09/04 09:07:44;;;;;;;0.50;0.50;;;22.00;99.90;;;;;;5008422;28;20045;-91
2023/09/04 09:10:16;;;;;;;0.40;0.40;;;21.90;99.90;;;;;;4992074;28;20145;-88
2023/09/04 09:12:42;;;;;;;0.40;0.40;;;22.00;99.90;;;;;;5009450;28;20041;-91
2023/09/04 09:15:08;;;;;;;0.50;0.50;;;22.40;99.90;;;;;;4995676;28;20127;-88
2023/09/04 09:17:33;;;;;;;0.45;0.45;;;22.00;99.90;;;;;;5006307;28;20045;-90
2023/09/04 09:19:59;;;;;;;0.40;0.40;;;22.20;99.90;;;;;;5007283;28;20069;-88
2023/09/04 09:22:25;;;;;;;0.50;0.50;;;22.40;99.90;;;;;;5011751;28;20045;-88
2023/09/04 09:24:56;;;;;;;0.40;0.40;;;22.40;99.90;;;;;;5009824;28;20049;-88
2023/09/04 09:27:24;;;;;;;0.50;0.50;;;22.50;99.90;;;;;;4992758;28;20037;-88
2023/09/04 09:29:50;;;;;;;0.47;0.47;;;22.70;99.90;;;;;;5006906;28;20160;-86
2023/09/04 09:32:18;;;;;;;0.47;0.47;;;22.40;99.90;;;;;;4992527;28;20052;-88
2023/09/04 09:34:52;;;;;;;0.40;0.40;;;22.70;99.90;;;;;;5008610;28;20108;-89
2023/09/04 09:37:21;;;;;;;0.40;0.40;;;22.90;99.90;;;;;;5005402;28;20502;-86
2023/09/04 09:39:47;;;;;;;0.50;0.50;;;22.80;99.90;;;;;;5009938;28;20057;-93
2023/09/04 09:42:13;;;;;;;0.40;0.40;;;23.00;99.90;;;;;;4994295;28;20049;-93
2023/09/04 09:44:39;;;;;;;0.40;0.40;;;22.60;99.90;;;;;;4986443;28;20380;-92
2023/09/04 09:47:11;;;;;;;0.40;0.40;;;22.90;99.90;;;;;;4987597;28;20053;-95
2023/09/04 09:49:39;;;;;;;0.40;0.40;;;23.00;99.90;;;;;;5007294;28;20507;-92
2023/09/04 09:52:10;;;;;;;0.40;0.40;;;23.50;99.90;;;;;;5006529;28;20049;-87
2023/09/04 09:54:43;;;;;;;0.40;0.40;;;23.60;99.90;;;;;;4990281;28;20156;-90
2023/09/04 09:57:17;;;;;;;0.40;0.40;;;23.60;99.90;;;;;;5006692;28;20045;-86
2023/09/04 09:59:44;;;;;;;0.45;0.45;;;23.80;99.90;;;;;;5007772;28;20607;-88
2023/09/04 10:02:15;;;;;;;0.40;0.40;;;23.60;99.90;;;;;;5004875;28;20037;-92
2023/09/04 10:04:42;;;;;;;0.40;0.40;;;23.20;99.90;;;;;;4991767;28;20290;-88
2023/09/04 10:07:10;;;;;;;0.40;0.40;;;23.40;99.90;;;;;;4989523;28;20042;-91
2023/09/04 10:09:43;;;;;;;0.40;0.40;;;23.70;99.90;;;;;;4987930;28;20115;-89
2023/09/04 10:12:15;;;;;;;0.32;0.32;;;23.20;99.90;;;;;;5005890;28;20787;-87
2023/09/04 10:14:42;;;;;;;0.47;0.47;;;23.40;99.90;;;;;;5008621;28;20045;-89
2023/09/04 10:17:19;;;;;;;0.30;0.30;;;23.60;99.90;;;;;;5005415;28;20111;-88
2023/09/04 10:19:48;;;;;;;0.50;0.50;;;24.00;99.90;;;;;;5013393;28;20049;-87
2023/09/04 10:22:30;;;;;;;0.38;0.38;;;24.00;99.90;;;;;;5008380;28;20048;-88
2023/09/04 10:25:09;;;;;;;0.50;0.50;;;24.00;99.90;;;;;;4992275;28;20030;-89
2023/09/04 10:27:44;;;;;;;0.30;0.30;;;24.20;99.90;;;;;;4994654;28;20042;-94
2023/09/04 10:30:18;;;;;;;0.50;0.50;;;24.50;99.90;;;;;;4992664;28;20072;-91
2023/09/04 10:32:53;;;;;;;0.30;0.30;;;24.30;99.90;;;;;;4992332;28;20045;-94
2023/09/04 10:35:19;;;;;;;0.30;0.30;;;24.70;99.90;;;;;;4993901;28;20167;-89
2023/09/04 10:37:47;;;;;;;0.30;0.30;;;24.40;99.90;;;;;;5009829;28;20132;-88
2023/09/04 10:40:14;;;;;;;0.30;0.30;;;23.80;99.90;;;;;;5010139;28;20071;-90
2023/09/04 10:42:41;;;;;;;0.30;0.30;;;24.20;99.90;;;;;;5005990;28;20124;-89
2023/09/04 10:45:20;;;;;;;0.40;0.40;;;24.40;99.90;;;;;;5009715;28;20041;-88
2023/09/04 10:47:50;;;;;;;0.40;0.40;;;24.90;99.90;;;;;;5005402;28;20048;-96
2023/09/04 10:50:39;;;;;;;0.30;0.30;;;24.20;99.90;;;;;;4996884;28;20041;-89
2023/09/04 10:53:06;;;;;;;0.30;0.30;;;24.10;99.90;;;;;;5004279;28;20637;-88
2023/09/04 10:55:37;;;;;;;0.30;0.30;;;24.20;99.90;;;;;;5012399;28;20049;-86
2023/09/04 10:58:10;;;;;;;0.30;0.30;;;24.30;99.90;;;;;;5007721;28;20615;-89
2023/09/04 11:00:40;;;;;;;0.40;0.40;;;24.30;99.90;;;;;;4991349;28;20618;-88
2023/09/04 11:03:24;;;;;;;0.30;0.30;;;24.20;99.90;;;;;;5008226;28;20388;-93
2023/09/04 11:06:02;;;;;;;0.40;0.40;;;24.20;99.90;;;;;;5007067;28;20125;-91
2023/09/04 11:08:49;;;;;;;0.40;0.40;;;24.40;99.90;;;;;;5009532;28;20042;-94
2023/09/04 11:11:19;;;;;;;0.40;0.40;;;24.70;99.90;;;;;;4991765;28;20050;-94
2023/09/04 11:13:45;;;;;;;0.30;0.30;;;25.10;99.90;;;;;;5007558;28;20049;-90
2023/09/04 11:16:14;;;;;;;0.35;0.35;;;25.00;99.90;;;;;;5007174;28;20080;-89
2023/09/04 11:18:40;;;;;;;0.30;0.30;;;25.10;99.90;;;;;;5007891;28;20042;-90
2023/09/04 11:21:10;;;;;;;0.30;0.30;;;25.60;99.90;;;;;;4995135;28;20136;-89
2023/09/04 11:23:36;;;;;;;0.30;0.30;;;25.40;99.90;;;;;;4990619;28;20046;-90
2023/09/04 11:26:02;;;;;;;0.30;0.30;;;25.90;99.90;;;;;;5007198;28;20050;-88
2023/09/04 11:28:28;;;;;;;0.30;0.30;;;25.40;99.90;;;;;;5007466;28;20042;-90
2023/09/04 11:30:57;;;;;;;0.30;0.30;;;25.10;99.90;;;;;;4988734;28;20041;-89
2023/09/04 11:33:24;;;;;;;0.30;0.30;;;25.30;99.90;;;;;;5007923;28;20053;-90
2023/09/04 11:36:00;;;;;;;0.30;0.30;;;25.60;99.90;;;;;;5010931;28;20057;-93
2023/09/04 11:38:30;;;;;;;0.30;0.30;;;25.40;99.90;;;;;;5014368;28;20049;-90
2023/09/04 11:40:56;;;;;;;0.30;0.30;;;26.00;99.90;;;;;;4992575;28;20432;-89
2023/09/04 11:43:27;;;;;;;0.30;0.30;;;26.50;99.90;;;;;;5010488;28;20037;-90
2023/09/04 11:45:55;;;;;;;0.30;0.30;;;25.60;99.90;;;;;;4992744;28;20061;-93
2023/09/04 11:48:26;;;;;;;0.30;0.30;;;25.40;99.90;;;;;;5006293;28;20518;-89
2023/09/04 11:50:53;;;;;;;0.30;0.30;;;25.40;99.90;;;;;;4994690;28;20042;-90
2023/09/04 11:53:20;;;;;;;0.30;0.30;;;25.00;99.90;;;;;;4996886;28;20054;-93
2023/09/04 11:55:51;;;;;;;0.30;0.30;;;25.00;99.90;;;;;;4990988;28;20071;-90
2023/09/04 11:58:17;;;;;;;0.30;0.30;;;25.80;99.90;;;;;;5007728;28;21611;-93
2023/09/04 12:00:43;;;;;;;0.30;0.30;;;26.00;99.90;;;;;;4996056;28;20136;-92
2023/09/04 12:03:09;;;;;;;0.30;0.30;;;25.70;99.90;;;;;;5013440;28;20155;-87
2023/09/04 12:05:35;;;;;;;0.30;0.30;;;25.20;99.90;;;;;;4994835;28;20068;-89
2023/09/04 12:08:03;;;;;;;0.30;0.30;;;25.60;99.90;;;;;;4994990;28;20527;-93
2023/09/04 12:10:28;;;;;;;0.30;0.30;;;25.50;99.90;;;;;;5012587;28;20045;-93
2023/09/04 12:12:54;;;;;;;0.30;0.30;;;25.40;99.90;;;;;;5014599;28;20048;-92
2023/09/04 12:15:33;;;;;;;0.40;0.40;;;25.80;99.90;;;;;;4993850;28;20037;-88
2023/09/04 12:18:03;;;;;;;0.30;0.30;;;25.70;99.90;;;;;;5008859;28;20531;-89
2023/09/04 12:20:34;;;;;;;0.30;0.30;;;25.70;99.90;;;;;;4991362;28;20047;-89
2023/09/04 12:23:00;;;;;;;0.35;0.35;;;26.00;99.90;;;;;;5011287;28;20045;-92
2023/09/04 12:25:42;;;;;;;0.30;0.30;;;25.80;99.90;;;;;;4991072;28;20403;-93
2023/09/04 12:28:10;;;;;;;0.30;0.30;;;25.80;99.90;;;;;;4996392;28;20071;-92
2023/09/04 12:30:37;;;;;;;0.30;0.30;;;25.80;99.90;;;;;;5008537;28;20096;-90
2023/09/04 12:33:06;;;;;;;0.30;0.30;;;25.80;99.90;;;;;;5011707;28;20049;-92
2023/09/04 12:35:32;;;;;;;0.30;0.30;;;26.00;99.90;;;;;;4996102;28;20112;-91
2023/09/04 12:37:58;;;;;;;0.30;0.30;;;25.90;99.90;;;;;;4994457;28;20046;-90
2023/09/04 12:40:24;;;;;;;0.30;0.30;;;26.40;99.90;;;;;;5010745;28;20103;-91
2023/09/04 12:42:49;;;;;;;0.30;0.30;;;26.80;99.90;;;;;;4992411;28;20037;-89
2023/09/04 12:45:15;;;;;;;0.30;0.30;;;26.20;99.90;;;;;;4995050;28;20033;-92
2023/09/04 12:47:41;;;;;;;0.30;0.30;;;26.00;99.90;;;;;;5006283;28;20626;-88
2023/09/04 12:50:08;;;;;;;0.30;0.30;;;25.80;99.90;;;;;;5008753;28;20053;-92